createdAt,value
2023-08-12T00:01:55.661Z,5.07
2023-08-12T00:04:25.624Z,4.57
2023-08-12T00:06:55.421Z,4.75
2023-08-12T00:09:33.354Z,4.30
2023-08-12T00:12:03.440Z,4.63
2023-08-12T00:14:35.075Z,4.85
2023-08-12T00:17:06.637Z,4.80
2023-08-12T00:19:35.275Z,4.10
2023-08-12T00:22:08.493Z,4.38
2023-08-12T00:24:37.431Z,4.20
2023-08-12T00:27:10.913Z,4.28
2023-08-12T00:32:11.045Z,4.30
2023-08-12T00:34:41.371Z,3.70
2023-08-12T00:37:15.487Z,4.28
2023-08-12T00:39:46.740Z,4.72
2023-08-12T00:42:24.535Z,4.43
2023-08-12T00:44:55.034Z,4.97
2023-08-12T00:47:28.834Z,5.72
2023-08-12T00:50:01.911Z,5.00
2023-08-12T00:52:33.336Z,4.85
2023-08-12T00:55:02.114Z,4.40
2023-08-12T00:57:40.404Z,5.45
2023-08-12T01:00:14.332Z,5.40
2023-08-12T01:02:54.393Z,4.80
2023-08-12T01:05:34.331Z,5.03
2023-08-12T01:08:06.576Z,4.30
2023-08-12T01:10:46.321Z,4.78
2023-08-12T01:13:49.119Z,4.80
2023-08-12T01:16:23.431Z,4.43
2023-08-12T01:18:56.484Z,4.07
2023-08-12T01:21:32.393Z,4.60
2023-08-12T01:24:01.270Z,4.43
2023-08-12T01:26:31.252Z,4.20
2023-08-12T01:29:07.585Z,3.92
2023-08-12T01:31:58.597Z,4.47
2023-08-12T01:34:50.956Z,4.75
2023-08-12T01:37:33.168Z,4.50
2023-08-12T01:40:10.942Z,4.53
2023-08-12T01:42:41.162Z,4.95
2023-08-12T01:45:12.603Z,4.10
2023-08-12T01:47:46.375Z,4.47
2023-08-12T01:50:20.011Z,4.90
2023-08-12T01:52:50.556Z,5.20
2023-08-12T01:55:27.270Z,4.30
2023-08-12T01:57:58.774Z,4.57
2023-08-12T02:00:28.825Z,4.50
2023-08-12T02:03:02.980Z,5.13
2023-08-12T02:05:33.510Z,4.43
2023-08-12T02:08:01.954Z,4.78
2023-08-12T02:10:30.037Z,4.68
2023-08-12T02:13:12.766Z,5.60
2023-08-12T02:15:50.647Z,4.43
2023-08-12T02:18:31.374Z,4.40
2023-08-12T02:21:03.771Z,4.35
2023-08-12T02:23:32.929Z,4.53
2023-08-12T02:26:09.048Z,4.85
2023-08-12T02:28:38.511Z,4.57
2023-08-12T02:31:08.104Z,5.38
2023-08-12T02:33:38.315Z,4.45
2023-08-12T02:36:09.770Z,4.35
2023-08-12T02:38:38.934Z,4.78
2023-08-12T02:41:18.059Z,4.57
2023-08-12T02:43:46.683Z,5.00
2023-08-12T02:46:22.194Z,5.05
2023-08-12T02:48:53.253Z,4.70
2023-08-12T02:51:24.233Z,4.75
2023-08-12T02:54:02.484Z,4.70
2023-08-12T02:56:31.137Z,4.18
2023-08-12T02:59:01.151Z,4.63
2023-08-12T03:01:31.831Z,3.95
2023-08-12T03:04:01.921Z,4.18
2023-08-12T03:06:32.040Z,4.00
2023-08-12T03:09:02.459Z,4.70
2023-08-12T03:11:33.821Z,4.80
2023-08-12T03:14:06.640Z,4.53
2023-08-12T03:16:39.088Z,4.72
2023-08-12T03:19:10.465Z,4.53
2023-08-12T03:21:43.833Z,4.60
2023-08-12T03:24:18.687Z,4.80
2023-08-12T03:26:51.843Z,5.15
2023-08-12T03:29:24.157Z,4.32
2023-08-12T03:31:54.012Z,4.63
2023-08-12T03:34:33.200Z,3.83
2023-08-12T03:37:03.696Z,4.50
2023-08-12T03:39:34.935Z,3.58
2023-08-12T03:42:06.211Z,4.85
2023-08-12T03:44:35.957Z,4.18
2023-08-12T03:47:05.194Z,4.68
2023-08-12T03:49:43.481Z,4.53
2023-08-12T03:52:21.152Z,4.13
2023-08-12T03:54:51.634Z,4.55
2023-08-12T03:57:21.439Z,4.28
2023-08-12T03:59:52.738Z,4.18
2023-08-12T04:02:23.694Z,4.65
2023-08-12T04:05:01.859Z,3.97
2023-08-12T04:07:39.265Z,4.00
2023-08-12T04:10:21.716Z,4.25
2023-08-12T04:12:50.325Z,4.65
2023-08-12T04:15:24.087Z,4.55
2023-08-12T04:17:56.887Z,4.93
2023-08-12T04:20:38.171Z,4.38
2023-08-12T04:23:05.817Z,4.78
2023-08-12T04:25:38.605Z,4.60
2023-08-12T04:28:12.519Z,4.88
2023-08-12T04:30:51.591Z,3.50
2023-08-12T04:33:24.460Z,4.43
2023-08-12T04:35:55.456Z,4.50
2023-08-12T04:38:27.060Z,4.38
2023-08-12T04:41:07.522Z,4.43
2023-08-12T04:43:42.103Z,4.53
2023-08-12T04:46:13.359Z,4.38
2023-08-12T04:48:47.529Z,4.45
2023-08-12T04:53:47.470Z,4.43
2023-08-12T04:56:18.720Z,4.80
2023-08-12T04:58:58.619Z,4.32
2023-08-12T05:01:47.719Z,4.85
2023-08-12T05:04:27.088Z,4.72
2023-08-12T05:06:58.110Z,4.50
2023-08-12T05:09:30.828Z,4.30
2023-08-12T05:11:59.521Z,5.20
2023-08-12T05:14:30.976Z,4.22
2023-08-12T05:17:01.717Z,4.55
2023-08-12T05:19:33.327Z,4.50
2023-08-12T05:22:02.094Z,4.70
2023-08-12T05:24:34.078Z,4.55
2023-08-12T05:27:10.584Z,4.70
2023-08-12T05:29:41.406Z,4.63
2023-08-12T05:32:09.223Z,4.60
2023-08-12T05:34:36.938Z,4.93
2023-08-12T05:37:06.619Z,4.55
2023-08-12T05:39:35.462Z,4.00
2023-08-12T05:42:06.940Z,4.38
2023-08-12T05:44:36.160Z,4.45
2023-08-12T05:47:06.108Z,4.22
2023-08-12T05:49:37.336Z,4.10
2023-08-12T05:52:06.530Z,3.78
2023-08-12T05:54:35.747Z,4.47
2023-08-12T05:57:07.128Z,4.55
2023-08-12T05:59:37.106Z,4.20
2023-08-12T06:02:15.435Z,4.07
2023-08-12T06:04:44.171Z,4.40
2023-08-12T06:07:23.007Z,5.03
2023-08-12T06:09:52.647Z,4.30
2023-08-12T06:12:24.220Z,4.53
2023-08-12T06:14:51.896Z,4.65
2023-08-12T06:17:30.035Z,4.53
2023-08-12T06:20:00.705Z,5.03
2023-08-12T06:22:31.579Z,4.22
2023-08-12T06:25:00.455Z,4.57
2023-08-12T06:27:29.338Z,4.75
2023-08-12T06:30:06.873Z,5.05
2023-08-12T06:32:36.188Z,4.05
2023-08-12T06:35:05.875Z,4.45
2023-08-12T06:37:37.608Z,5.20
2023-08-12T06:40:15.950Z,4.22
2023-08-12T06:42:47.096Z,4.45
2023-08-12T06:45:17.046Z,4.63
2023-08-12T06:47:46.500Z,4.72
2023-08-12T06:50:21.657Z,4.00
2023-08-12T06:52:59.449Z,4.22
2023-08-12T06:55:28.880Z,4.78
2023-08-12T06:57:57.606Z,3.65
2023-08-12T07:00:31.400Z,3.90
2023-08-12T07:03:07.598Z,4.75
2023-08-12T07:05:38.393Z,4.10
2023-08-12T07:08:08.034Z,3.95
2023-08-12T07:10:50.350Z,4.25
2023-08-12T07:13:20.070Z,4.60
2023-08-12T07:15:48.549Z,4.00
2023-08-12T07:18:27.725Z,5.22
2023-08-12T07:20:56.195Z,4.25
2023-08-12T07:23:34.851Z,4.68
2023-08-12T07:26:18.023Z,4.43
2023-08-12T07:28:46.086Z,4.95
2023-08-12T07:31:16.228Z,4.75
2023-08-12T07:33:46.323Z,4.88
2023-08-12T07:36:17.424Z,4.10
2023-08-12T07:38:53.973Z,4.65
2023-08-12T07:41:24.900Z,4.60
2023-08-12T07:43:54.557Z,4.35
2023-08-12T07:46:37.189Z,4.18
2023-08-12T07:49:14.383Z,4.38
2023-08-12T07:51:44.700Z,4.82
2023-08-12T07:54:14.135Z,4.70
2023-08-12T07:56:46.643Z,4.43
2023-08-12T07:59:16.046Z,4.65
2023-08-12T08:01:47.280Z,3.65
2023-08-12T08:04:24.862Z,4.40
2023-08-12T08:06:55.177Z,4.13
2023-08-12T08:09:28.139Z,3.92
2023-08-12T08:12:10.561Z,3.72
2023-08-12T08:14:41.702Z,4.28
2023-08-12T08:17:12.041Z,3.95
2023-08-12T08:19:47.778Z,3.97
2023-08-12T08:22:17.559Z,3.67
2023-08-12T08:24:46.584Z,3.70
2023-08-12T08:27:18.009Z,4.25
2023-08-12T08:29:53.716Z,3.53
2023-08-12T08:32:22.444Z,3.83
2023-08-12T08:34:49.602Z,4.15
2023-08-12T08:37:22.368Z,3.20
2023-08-12T08:39:55.727Z,3.20
2023-08-12T08:42:34.129Z,3.70
2023-08-12T08:45:15.030Z,3.83
2023-08-12T08:47:46.356Z,3.33
2023-08-12T08:50:18.106Z,3.25
2023-08-12T08:52:49.463Z,3.22
2023-08-12T08:55:23.058Z,3.42
2023-08-12T08:58:02.340Z,3.63
2023-08-12T09:00:33.512Z,3.08
2023-08-12T09:03:11.508Z,2.80
2023-08-12T09:05:41.002Z,3.35
2023-08-12T09:08:18.276Z,3.13
2023-08-12T09:10:50.975Z,3.63
2023-08-12T09:13:20.356Z,3.07
2023-08-12T09:15:47.661Z,3.17
2023-08-12T09:18:19.644Z,3.00
2023-08-12T09:23:38.645Z,3.30
2023-08-12T09:26:19.592Z,3.13
2023-08-12T09:28:48.689Z,2.60
2023-08-12T09:31:29.890Z,2.45
2023-08-12T09:34:13.963Z,3.22
2023-08-12T09:36:51.704Z,2.55
2023-08-12T09:39:30.972Z,2.28
2023-08-12T09:42:05.302Z,2.85
2023-08-12T09:44:38.351Z,2.53
2023-08-12T09:47:12.921Z,3.08
2023-08-12T09:49:44.995Z,2.78
2023-08-12T09:52:14.636Z,2.72
2023-08-12T09:54:52.800Z,3.13
2023-08-12T09:57:28.063Z,3.10
2023-08-12T10:00:05.438Z,2.40
2023-08-12T10:02:36.514Z,2.70
2023-08-12T10:05:06.276Z,2.65
2023-08-12T10:07:37.450Z,2.92
2023-08-12T10:10:15.461Z,2.53
2023-08-12T10:12:48.374Z,2.17
2023-08-12T10:15:18.988Z,2.78
2023-08-12T10:17:48.336Z,2.70
2023-08-12T10:20:30.764Z,2.50
2023-08-12T10:23:02.421Z,2.97
2023-08-12T10:25:44.563Z,2.80
2023-08-12T10:28:23.500Z,2.53
2023-08-12T10:30:52.191Z,2.55
2023-08-12T10:33:20.204Z,2.83
2023-08-12T10:35:57.852Z,2.78
2023-08-12T10:38:27.815Z,2.85
2023-08-12T10:41:24.537Z,2.08
2023-08-12T10:44:09.377Z,2.72
2023-08-12T10:46:43.106Z,2.58
2023-08-12T10:49:15.228Z,2.75
2023-08-12T10:51:46.368Z,2.53
2023-08-12T10:54:24.873Z,2.50
2023-08-12T10:57:15.810Z,3.00
2023-08-12T10:59:57.000Z,2.47
2023-08-12T11:02:35.496Z,2.42
2023-08-12T11:05:12.338Z,2.40
2023-08-12T11:07:50.440Z,2.42
2023-08-12T11:10:19.959Z,2.63
2023-08-12T11:12:59.814Z,2.20
2023-08-12T11:15:40.284Z,2.95
2023-08-12T11:18:35.094Z,2.37
2023-08-12T11:21:11.429Z,2.25
2023-08-12T11:24:03.718Z,2.17
2023-08-12T11:26:34.521Z,2.03
2023-08-12T11:29:14.856Z,2.15
2023-08-12T11:31:45.693Z,1.92
2023-08-12T11:34:15.000Z,2.30
2023-08-12T11:36:51.942Z,1.88
2023-08-12T11:39:23.630Z,2.28
2023-08-12T11:41:57.831Z,2.20
2023-08-12T11:44:26.295Z,1.60
2023-08-12T11:46:58.296Z,2.22
2023-08-12T11:49:28.834Z,2.50
2023-08-12T11:52:01.175Z,2.40
2023-08-12T11:54:30.108Z,2.22
2023-08-12T11:57:10.016Z,2.13
2023-08-12T11:59:38.907Z,2.20
2023-08-12T12:02:08.487Z,2.00
2023-08-12T12:04:44.278Z,1.85
2023-08-12T12:07:29.005Z,1.77
2023-08-12T12:12:37.686Z,1.63
2023-08-12T12:15:07.641Z,1.90
2023-08-12T12:17:50.875Z,2.00
2023-08-12T12:20:25.435Z,2.45
2023-08-12T12:22:56.793Z,2.00
2023-08-12T12:25:25.763Z,1.83
2023-08-12T12:28:03.144Z,2.08
2023-08-12T12:30:34.184Z,1.92
2023-08-12T12:33:13.219Z,1.80
2023-08-12T12:35:55.832Z,1.95
2023-08-12T12:38:27.621Z,2.22
2023-08-12T12:40:55.327Z,2.25
2023-08-12T12:43:26.714Z,2.08
2023-08-12T12:45:57.004Z,2.22
2023-08-12T12:48:25.742Z,1.83
2023-08-12T12:50:54.478Z,1.88
2023-08-12T12:53:31.864Z,2.30
2023-08-12T12:56:05.233Z,2.15
2023-08-12T12:58:39.015Z,2.67
2023-08-12T13:01:09.372Z,2.10
2023-08-12T13:03:39.431Z,1.88
2023-08-12T13:06:08.864Z,1.98
2023-08-12T13:08:42.355Z,2.25
2023-08-12T13:11:13.061Z,2.35
2023-08-12T13:13:43.041Z,2.10
2023-08-12T13:16:17.646Z,1.85
2023-08-12T13:18:49.175Z,1.95
2023-08-12T13:21:21.363Z,1.92
2023-08-12T13:23:58.834Z,2.00
2023-08-12T13:26:31.172Z,2.22
2023-08-12T13:29:00.914Z,2.00
2023-08-12T13:31:32.265Z,1.98
2023-08-12T13:34:09.531Z,1.92
2023-08-12T13:36:39.278Z,1.80
2023-08-12T13:39:17.332Z,1.85
2023-08-12T13:41:54.216Z,1.90
2023-08-12T13:44:22.746Z,2.08
2023-08-12T13:46:54.062Z,2.10
2023-08-12T13:49:23.035Z,2.05
2023-08-12T13:51:54.129Z,1.90
2023-08-12T13:54:24.998Z,2.00
2023-08-12T13:56:58.154Z,2.28
2023-08-12T13:59:28.930Z,1.90
2023-08-12T14:01:58.081Z,2.13
2023-08-12T14:04:25.712Z,1.90
2023-08-12T14:06:56.482Z,2.10
2023-08-12T14:09:27.240Z,2.20
2023-08-12T14:11:56.810Z,1.95
2023-08-12T14:14:30.573Z,1.85
2023-08-12T14:16:58.871Z,1.73
2023-08-12T14:19:30.115Z,1.80
2023-08-12T14:21:57.825Z,1.77
2023-08-12T14:24:28.548Z,1.83
2023-08-12T14:26:59.620Z,1.98
2023-08-12T14:29:30.049Z,1.60
2023-08-12T14:32:01.818Z,2.17
2023-08-12T14:34:35.304Z,2.00
2023-08-12T14:37:04.909Z,1.77
2023-08-12T14:39:35.563Z,1.90
2023-08-12T14:42:13.209Z,2.03
2023-08-12T14:44:45.067Z,1.95
2023-08-12T14:47:23.577Z,1.85
2023-08-12T14:49:55.395Z,2.17
2023-08-12T14:52:31.203Z,1.80
2023-08-12T14:55:01.376Z,2.00
2023-08-12T14:57:33.886Z,1.92
2023-08-12T15:00:13.346Z,1.80
2023-08-12T15:03:05.464Z,2.03
2023-08-12T15:05:37.346Z,1.73
2023-08-12T15:08:09.402Z,1.88
2023-08-12T15:10:38.389Z,1.88
2023-08-12T15:13:07.645Z,2.03
2023-08-12T15:15:37.132Z,1.85
2023-08-12T15:18:07.118Z,2.50
2023-08-12T15:20:37.135Z,1.70
2023-08-12T15:23:07.110Z,1.65
2023-08-12T15:38:19.031Z,2.17
2023-08-12T15:40:47.360Z,1.40
2023-08-12T15:43:16.725Z,1.60
2023-08-12T15:45:49.947Z,1.48
2023-08-12T15:51:02.368Z,1.20
2023-08-12T15:53:32.677Z,1.40
2023-08-12T15:56:10.927Z,1.60
2023-08-12T15:58:48.790Z,1.20
2023-08-12T16:01:18.948Z,2.05
2023-08-12T16:03:49.269Z,1.50
2023-08-12T16:06:28.169Z,1.65
2023-08-12T16:09:17.517Z,1.90
2023-08-12T16:11:51.075Z,1.60
2023-08-12T16:14:23.406Z,1.90
2023-08-12T16:16:55.718Z,1.95
2023-08-12T16:19:32.664Z,1.73
2023-08-12T16:22:03.678Z,2.20
2023-08-12T16:24:40.580Z,1.50
2023-08-12T16:27:11.384Z,1.92
2023-08-12T16:29:41.757Z,1.70
2023-08-12T16:32:13.310Z,1.85
2023-08-12T16:34:46.491Z,1.33
2023-08-12T16:37:22.044Z,1.48
2023-08-12T16:39:54.844Z,1.65
2023-08-12T16:42:31.591Z,2.08
2023-08-12T16:45:08.361Z,1.80
2023-08-12T16:47:45.738Z,2.22
2023-08-12T16:50:16.316Z,1.60
2023-08-12T16:52:55.786Z,1.60
2023-08-12T16:55:31.843Z,1.83
2023-08-12T16:58:09.019Z,2.03
2023-08-12T17:00:38.107Z,2.20
2023-08-12T17:03:09.417Z,2.30
2023-08-12T17:05:40.796Z,2.22
2023-08-12T17:08:17.096Z,2.20
2023-08-12T17:10:45.016Z,2.03
2023-08-12T17:13:16.022Z,1.80
2023-08-12T17:15:47.284Z,2.05
2023-08-12T17:18:19.529Z,1.80
2023-08-12T17:20:47.094Z,2.05
2023-08-12T17:23:17.922Z,1.70
2023-08-12T17:25:57.412Z,1.67
2023-08-12T17:28:31.261Z,2.10
2023-08-12T17:31:02.965Z,1.60
2023-08-12T17:33:40.949Z,1.90
2023-08-12T17:36:11.685Z,2.20
2023-08-12T17:38:44.040Z,2.20
2023-08-12T17:41:13.357Z,2.33
2023-08-12T17:43:46.973Z,3.00
2023-08-12T17:46:16.720Z,3.33
2023-08-12T17:48:53.904Z,3.03
2023-08-12T17:51:30.133Z,2.80
2023-08-12T17:54:07.742Z,3.10
2023-08-12T17:56:45.176Z,5.38
2023-08-12T17:59:21.869Z,5.10
2023-08-12T18:01:49.968Z,4.80
2023-08-12T18:04:21.331Z,4.85
2023-08-12T18:06:51.527Z,4.43
2023-08-12T18:09:28.706Z,5.47
2023-08-12T18:12:01.864Z,5.50
2023-08-12T18:14:40.226Z,9.20
2023-08-12T18:17:12.081Z,10.48
2023-08-12T18:19:41.506Z,11.55
2023-08-12T18:22:24.202Z,16.15
2023-08-12T18:24:53.777Z,18.40
2023-08-12T18:27:24.432Z,25.65
2023-08-12T18:29:59.972Z,31.17
2023-08-12T18:32:36.040Z,38.53
2023-08-12T18:35:19.420Z,22.85
2023-08-12T18:37:52.969Z,16.98
2023-08-12T18:40:22.307Z,19.30
2023-08-12T18:42:54.224Z,26.50
2023-08-12T18:45:23.264Z,24.83
2023-08-12T18:47:53.148Z,26.15
2023-08-12T18:50:25.541Z,27.65
2023-08-12T18:53:02.996Z,26.38
2023-08-12T18:55:39.494Z,25.23
2023-08-12T18:58:10.451Z,22.10
2023-08-12T19:00:42.074Z,25.25
2023-08-12T19:03:11.601Z,21.77
2023-08-12T19:05:49.996Z,21.20
2023-08-12T19:08:19.872Z,22.55
2023-08-12T19:10:56.328Z,16.70
2023-08-12T19:13:30.988Z,15.25
2023-08-12T19:15:59.974Z,14.73
2023-08-12T19:18:32.051Z,15.25
2023-08-12T19:21:02.148Z,17.95
2023-08-12T19:23:30.253Z,14.48
2023-08-12T19:26:00.494Z,14.00
2023-08-12T19:28:29.477Z,21.92
2023-08-12T19:30:58.041Z,23.33
2023-08-12T19:33:28.464Z,15.30
2023-08-12T19:36:01.825Z,14.18
2023-08-12T19:38:38.857Z,10.45
2023-08-12T19:41:08.617Z,8.15
2023-08-12T19:43:35.996Z,10.00
2023-08-12T19:46:06.568Z,14.50
2023-08-12T19:48:35.315Z,12.07
2023-08-12T19:51:04.883Z,13.05
2023-08-12T19:53:36.213Z,18.88
2023-08-12T19:56:07.740Z,28.63
2023-08-12T19:58:35.015Z,35.97
2023-08-12T20:01:02.555Z,34.83
2023-08-12T20:03:34.016Z,42.63
2023-08-12T20:06:13.140Z,45.92
2023-08-12T20:08:48.689Z,41.50
2023-08-12T20:11:18.370Z,30.45
2023-08-12T20:13:47.193Z,25.35
2023-08-12T20:16:16.723Z,18.25
2023-08-12T20:18:54.510Z,15.60
2023-08-12T20:21:26.575Z,19.05
2023-08-12T20:23:55.081Z,15.77
2023-08-12T20:26:24.381Z,16.35
2023-08-12T20:28:54.468Z,12.77
2023-08-12T20:31:27.088Z,12.20
2023-08-12T20:33:57.204Z,13.02
2023-08-12T20:36:36.336Z,16.42
2023-08-12T20:39:14.281Z,15.85
2023-08-12T20:41:43.465Z,16.67
2023-08-12T20:44:20.706Z,16.40
2023-08-12T20:46:49.567Z,20.88
2023-08-12T20:49:27.385Z,21.13
2023-08-12T20:51:56.536Z,21.88
2023-08-12T20:54:28.710Z,24.27
2023-08-12T20:57:04.419Z,24.85
2023-08-12T20:59:36.592Z,26.88
2023-08-12T21:02:08.009Z,31.95
2023-08-12T21:04:38.523Z,34.15
2023-08-12T21:07:08.707Z,35.83
2023-08-12T21:09:38.857Z,38.05
2023-08-12T21:12:11.768Z,37.53
2023-08-12T21:14:41.581Z,41.85
2023-08-12T21:17:16.142Z,39.63
2023-08-12T21:19:57.987Z,33.88
2023-08-12T21:22:34.328Z,35.78
2023-08-12T21:25:08.998Z,38.60
2023-08-12T21:27:48.496Z,39.15
2023-08-12T21:30:32.263Z,37.95
2023-08-12T21:33:00.999Z,38.17
2023-08-12T21:35:32.752Z,38.65
2023-08-12T21:38:04.808Z,37.15
2023-08-12T21:40:36.047Z,40.38
2023-08-12T21:43:09.405Z,27.57
2023-08-12T21:45:50.029Z,17.55
2023-08-12T21:48:24.977Z,16.88
2023-08-12T21:50:56.527Z,15.85
2023-08-12T21:53:35.595Z,14.85
2023-08-12T21:56:15.829Z,17.27
2023-08-12T21:58:47.844Z,17.50
2023-08-12T22:01:19.163Z,16.92
2023-08-12T22:03:56.181Z,21.55
2023-08-12T22:06:39.423Z,23.90
2023-08-12T22:09:11.783Z,24.27
2023-08-12T22:11:44.306Z,23.40
2023-08-12T22:14:14.212Z,22.63
2023-08-12T22:16:46.441Z,23.20
2023-08-12T22:19:17.342Z,23.75
2023-08-12T22:21:49.415Z,21.17
2023-08-12T22:24:21.156Z,17.52
2023-08-12T22:26:55.997Z,17.35
2023-08-12T22:29:35.768Z,17.00
2023-08-12T22:32:05.318Z,15.68
2023-08-12T22:34:34.439Z,14.40
2023-08-12T22:37:05.613Z,14.75
2023-08-12T22:39:46.947Z,15.43
2023-08-12T22:42:17.178Z,16.38
2023-08-12T22:44:50.459Z,14.60
2023-08-12T22:47:21.584Z,12.70
2023-08-12T22:49:53.666Z,13.50
2023-08-12T22:52:32.453Z,12.70
2023-08-12T22:55:10.798Z,12.88
2023-08-12T22:57:43.798Z,14.20
2023-08-12T23:00:14.419Z,13.00
2023-08-12T23:02:44.324Z,14.77
2023-08-12T23:05:27.321Z,12.82
2023-08-12T23:07:56.820Z,14.18
2023-08-12T23:10:26.982Z,15.15
2023-08-12T23:12:57.110Z,17.33
2023-08-12T23:15:34.170Z,17.42
2023-08-12T23:18:06.773Z,15.90
2023-08-12T23:20:35.835Z,14.73
2023-08-12T23:23:07.081Z,16.45
2023-08-12T23:25:35.904Z,16.60
2023-08-12T23:28:08.079Z,14.57
2023-08-12T23:30:38.772Z,15.15
2023-08-12T23:33:09.230Z,12.32
2023-08-12T23:35:36.676Z,11.77
2023-08-12T23:38:08.462Z,11.57
2023-08-12T23:40:39.700Z,10.65
2023-08-12T23:43:10.807Z,9.23
2023-08-12T23:45:40.762Z,8.30
2023-08-12T23:48:18.934Z,8.98
2023-08-12T23:50:50.122Z,9.30
2023-08-12T23:53:22.778Z,8.98
2023-08-12T23:56:01.966Z,9.27
2023-08-12T23:58:29.311Z,9.35
